Time;durP1;ratioP1;P1;durP2;ratioP2;P2;SDS_P1;SDS_P2;PMS_P1;PMS_P2;Temp;Humidity;BMP_temperature;BMP_pressure;BME280_temperature;BME280_humidity;BME280_pressure;Samples;Min_cycle;Max_cycle;Signal;HPM_P1;HPM_P2
2021/12/22 00:01:30;;;;;;;7.67;6.00;;;0.50;71.70;0.10;97033.00;;;;5083290;28;21106;-83
2021/12/22 00:03:58;;;;;;;6.80;5.73;;;0.50;71.70;0.10;97028.00;;;;5078736;28;20457;-82
2021/12/22 00:06:27;;;;;;;6.87;5.77;;;0.50;71.80;0.10;97035.00;;;;5091573;28;20433;-83
2021/12/22 00:08:54;;;;;;;7.07;6.03;;;0.50;71.80;0.10;97028.00;;;;5089013;28;20469;-83
2021/12/22 00:11:21;;;;;;;9.67;6.13;;;0.50;71.80;0.00;97033.00;;;;5092412;28;20437;-84
2021/12/22 00:13:48;;;;;;;8.50;6.03;;;0.40;71.70;0.00;97026.00;;;;5091079;28;20481;-84
2021/12/22 00:16:15;;;;;;;7.47;5.90;;;0.40;71.60;0.00;97037.00;;;;5078418;28;20446;-84
2021/12/22 00:18:44;;;;;;;7.73;6.20;;;0.40;71.60;0.00;97036.00;;;;5101961;28;20479;-84
2021/12/22 00:21:14;;;;;;;6.77;5.70;;;0.40;71.50;0.00;97038.00;;;;5091444;28;20442;-84
2021/12/22 00:23:41;;;;;;;8.50;6.00;;;0.40;71.60;-0.10;97030.00;;;;5090997;28;20445;-84
2021/12/22 00:26:08;;;;;;;9.03;6.30;;;0.30;71.40;-0.10;97026.00;;;;5088215;28;20460;-84
2021/12/22 00:28:35;;;;;;;6.67;5.23;;;0.30;71.50;-0.10;97037.00;;;;5085039;28;20552;-83
2021/12/22 00:31:09;;;;;;;7.00;5.87;;;0.30;71.40;-0.20;97037.00;;;;5092433;28;20886;-84
2021/12/22 00:33:44;;;;;;;7.87;6.13;;;0.30;71.40;-0.20;97044.00;;;;5090759;28;20465;-83
2021/12/22 00:36:13;;;;;;;7.30;5.97;;;0.30;71.50;-0.20;97038.00;;;;5092347;28;20445;-84
2021/12/22 00:38:40;;;;;;;8.63;6.20;;;0.20;71.70;-0.20;97046.00;;;;5090297;28;20922;-84
2021/12/22 00:41:08;;;;;;;7.33;6.23;;;0.20;71.80;-0.20;97048.00;;;;5092052;28;20946;-83
2021/12/22 00:43:35;;;;;;;9.33;6.43;;;0.20;71.70;-0.20;97042.00;;;;5091209;28;20520;-83
2021/12/22 00:46:04;;;;;;;7.53;5.90;;;0.20;71.70;-0.20;97035.00;;;;5081286;28;20449;-83
2021/12/22 00:48:32;;;;;;;8.13;6.40;;;0.20;71.80;-0.30;97040.00;;;;5085546;28;20514;-83
2021/12/22 00:50:59;;;;;;;7.53;6.53;;;0.20;71.80;-0.30;97050.00;;;;5092769;28;20445;-82
2021/12/22 00:53:27;;;;;;;6.73;5.83;;;0.20;72.00;-0.30;97042.00;;;;5092215;28;20483;-83
2021/12/22 00:55:55;;;;;;;9.80;6.17;;;0.20;72.00;-0.30;97052.00;;;;5092571;28;20441;-83
2021/12/22 00:58:22;;;;;;;7.63;6.23;;;0.20;72.10;-0.30;97043.00;;;;5092235;28;20994;-83
2021/12/22 01:00:49;;;;;;;9.10;6.77;;;0.20;72.20;-0.30;97050.00;;;;5095642;28;21345;-83
2021/12/22 01:03:18;;;;;;;6.77;6.07;;;0.20;72.30;-0.30;97047.00;;;;5086786;28;20468;-83
2021/12/22 01:05:45;;;;;;;6.80;6.10;;;0.20;72.20;-0.30;97042.00;;;;5095319;28;20429;-83
2021/12/22 01:08:13;;;;;;;7.57;6.00;;;0.20;72.30;-0.30;97059.00;;;;5105096;28;20473;-83
2021/12/22 01:10:41;;;;;;;6.53;5.37;;;0.20;72.30;-0.30;97049.00;;;;5101868;28;20425;-83
2021/12/22 01:13:09;;;;;;;9.43;6.40;;;0.20;72.30;-0.20;97053.00;;;;5097702;28;20540;-82
2021/12/22 01:15:37;;;;;;;7.53;6.20;;;0.20;72.30;-0.20;97042.00;;;;5104659;28;20425;-83
2021/12/22 01:18:11;;;;;;;7.27;5.57;;;0.20;72.10;-0.30;97051.00;;;;5100344;28;20533;-83
2021/12/22 01:20:52;;;;;;;7.00;5.87;;;0.20;71.80;-0.30;97055.00;;;;5077253;28;20460;-83
2021/12/22 01:23:21;;;;;;;9.23;6.50;;;0.20;71.70;-0.30;97056.00;;;;5090056;28;20732;-82
2021/12/22 01:25:51;;;;;;;6.43;5.83;;;0.10;71.60;-0.30;97057.00;;;;5084027;28;20437;-83
2021/12/22 01:28:22;;;;;;;8.07;6.17;;;0.10;71.60;-0.40;97049.00;;;;5089183;28;20480;-82
2021/12/22 01:30:50;;;;;;;8.30;5.90;;;0.10;72.40;-0.40;97060.00;;;;5094014;28;20457;-83
2021/12/22 01:33:18;;;;;;;7.77;5.67;;;0.10;71.50;-0.40;97058.00;;;;5090012;28;20499;-83
2021/12/22 01:35:46;;;;;;;8.33;6.10;;;0.10;71.40;-0.40;97068.00;;;;5078554;28;20438;-83
2021/12/22 01:38:14;;;;;;;8.07;6.70;;;0.00;71.40;-0.40;97068.00;;;;5089214;28;20994;-83
2021/12/22 01:40:45;;;;;;;8.00;6.17;;;0.00;71.30;-0.50;97064.00;;;;5099320;28;20945;-83
2021/12/22 01:43:17;;;;;;;7.33;6.20;;;0.00;71.20;-0.50;97065.00;;;;5085484;28;20451;-84
2021/12/22 01:45:55;;;;;;;8.53;6.30;;;-0.10;71.30;-0.50;97063.00;;;;5078836;28;20426;-83
2021/12/22 01:51:32;;;;;;;7.67;5.90;;;-0.10;71.40;-0.60;97049.00;;;;5096878;28;20586;-83
2021/12/22 01:54:04;;;;;;;6.93;5.80;;;-0.10;71.40;-0.60;97054.00;;;;5085847;28;21019;-83
2021/12/22 01:56:34;;;;;;;8.27;6.03;;;-0.10;71.30;-0.60;97064.00;;;;5097249;28;20448;-82
2021/12/22 01:59:07;;;;;;;7.80;6.03;;;-0.20;71.30;-0.60;97067.00;;;;5092945;28;20465;-83
2021/12/22 02:01:35;;;;;;;7.10;6.17;;;-0.20;71.30;-0.60;97065.00;;;;5094078;28;20492;-83
2021/12/22 02:04:06;;;;;;;8.03;6.13;;;-0.20;71.40;-0.60;97057.00;;;;5087914;28;20543;-83
2021/12/22 02:06:33;;;;;;;8.30;6.43;;;-0.20;71.40;-0.60;97065.00;;;;5097659;28;20939;-83
2021/12/22 02:09:00;;;;;;;8.20;6.27;;;-0.20;71.50;-0.70;97059.00;;;;5080264;28;20472;-83
2021/12/22 02:11:27;;;;;;;9.33;6.20;;;-0.20;71.50;-0.60;97062.00;;;;5096158;28;20425;-83
2021/12/22 02:13:59;;;;;;;9.03;6.80;;;-0.20;71.50;-0.60;97064.00;;;;5093558;28;20477;-83
2021/12/22 02:16:31;;;;;;;10.60;6.70;;;-0.20;71.70;-0.60;97058.00;;;;5094903;28;20471;-84
2021/12/22 02:19:01;;;;;;;8.50;6.60;;;-0.20;71.70;-0.60;97050.00;;;;5093797;28;20495;-82
2021/12/22 02:21:34;;;;;;;7.60;6.33;;;-0.20;71.70;-0.60;97050.00;;;;5096331;28;20442;-83
2021/12/22 02:24:01;;;;;;;9.47;6.33;;;-0.20;71.60;-0.70;97045.00;;;;5095351;28;20456;-81
2021/12/22 02:26:35;;;;;;;8.27;6.60;;;-0.20;71.60;-0.70;97043.00;;;;5097300;28;20442;-82
2021/12/22 02:29:06;;;;;;;7.50;6.33;;;-0.20;71.40;-0.70;97057.00;;;;5088217;28;20472;-82
2021/12/22 02:31:43;;;;;;;7.70;6.87;;;-0.30;71.20;-0.70;97061.00;;;;5085868;28;20939;-83
2021/12/22 02:34:14;;;;;;;6.83;5.77;;;-0.20;71.30;-0.80;97050.00;;;;5090913;28;20564;-83
2021/12/22 02:36:44;;;;;;;8.47;6.43;;;-0.30;71.20;-0.80;97055.00;;;;5091989;28;20882;-83
2021/12/22 02:39:12;;;;;;;8.23;6.20;;;-0.30;71.20;-0.80;97058.00;;;;5081917;28;21042;-82
2021/12/22 02:41:40;;;;;;;7.73;6.40;;;-0.30;71.30;-0.80;97050.00;;;;5093857;28;20931;-83
2021/12/22 02:44:10;;;;;;;7.83;6.17;;;-0.30;71.20;-0.80;97051.00;;;;5080378;28;20441;-83
2021/12/22 02:46:39;;;;;;;9.50;6.80;;;-0.30;71.20;-0.90;97055.00;;;;5092169;28;20862;-83
2021/12/22 02:49:10;;;;;;;8.20;6.40;;;-0.40;71.20;-0.90;97048.00;;;;5093682;28;20501;-81
2021/12/22 02:51:37;;;;;;;10.53;7.00;;;-0.40;71.10;-0.90;97051.00;;;;5082117;28;20548;-82
2021/12/22 02:54:11;;;;;;;9.50;6.57;;;-0.40;71.10;-0.90;97049.00;;;;5093346;28;20485;-82
2021/12/22 02:56:52;;;;;;;8.40;6.73;;;-0.40;71.10;-0.90;97048.00;;;;5094940;28;20503;-82
2021/12/22 02:59:45;;;;;;;7.90;6.60;;;-0.50;71.10;-0.90;97054.00;;;;5094057;28;20585;-83
2021/12/22 03:02:23;;;;;;;8.77;7.37;;;-0.40;71.20;-0.90;97054.00;;;;5093719;28;20843;-83
2021/12/22 03:04:55;;;;;;;10.23;7.03;;;-0.20;71.40;-1.00;97048.00;;;;5093960;28;20532;-83
2021/12/22 03:07:25;;;;;;;7.97;7.00;;;-0.50;71.10;-1.00;97047.00;;;;5091383;28;20500;-82
2021/12/22 03:10:00;;;;;;;9.67;7.27;;;-0.50;71.10;-1.00;97065.00;;;;5078105;28;20534;-82
2021/12/22 03:12:32;;;;;;;8.13;6.53;;;-0.50;71.10;-1.00;97066.00;;;;5096465;28;20441;-81
2021/12/22 03:14:59;;;;;;;10.63;6.60;;;-0.50;71.10;-1.00;97062.00;;;;5095871;28;20476;-83
2021/12/22 03:17:26;;;;;;;9.43;6.80;;;-0.50;71.00;-1.10;97064.00;;;;5094021;28;20453;-82
2021/12/22 03:19:54;;;;;;;7.87;6.33;;;-0.60;71.00;-1.10;97072.00;;;;5094035;28;20491;-82
2021/12/22 03:22:22;;;;;;;8.90;6.93;;;-0.40;71.30;-1.10;97076.00;;;;5090509;28;20437;-83
2021/12/22 03:24:51;;;;;;;7.93;6.67;;;-0.60;71.10;-1.10;97075.00;;;;5095150;28;20473;-81
2021/12/22 03:27:20;;;;;;;10.47;7.17;;;-0.60;71.10;-1.10;97058.00;;;;5095470;28;20445;-82
2021/12/22 03:29:47;;;;;;;7.60;6.03;;;-0.60;71.00;-1.10;97079.00;;;;5112941;28;20442;-80
2021/12/22 03:32:14;;;;;;;7.97;6.63;;;-0.60;70.90;-1.20;97073.00;;;;5098069;28;20437;-83
2021/12/22 03:34:42;;;;;;;8.47;6.20;;;-0.60;71.00;-1.20;97075.00;;;;5099372;28;20481;-82
2021/12/22 03:37:10;;;;;;;8.23;6.67;;;-0.70;71.00;-1.10;97085.00;;;;5080396;28;20459;-83
2021/12/22 03:39:38;;;;;;;8.47;6.93;;;-0.70;71.10;-1.20;97083.00;;;;5090743;28;20437;-81
2021/12/22 03:42:09;;;;;;;11.23;7.33;;;-0.70;71.00;-1.20;97081.00;;;;5093665;28;21009;-82
2021/12/22 03:44:38;;;;;;;9.10;6.43;;;-0.70;71.10;-1.10;97082.00;;;;5096158;28;20434;-83
2021/12/22 03:47:06;;;;;;;8.40;6.63;;;-0.60;71.20;-1.20;97078.00;;;;5087362;28;20457;-82
2021/12/22 03:49:34;;;;;;;9.63;7.23;;;-0.70;71.10;-1.20;97071.00;;;;5096161;28;20453;-82
2021/12/22 03:52:01;;;;;;;9.07;7.20;;;-0.70;71.20;-1.20;97076.00;;;;5095099;28;20447;-81
2021/12/22 03:54:28;;;;;;;9.47;7.07;;;-0.70;71.20;-1.20;97071.00;;;;5096458;28;20479;-82
2021/12/22 03:56:55;;;;;;;9.83;7.07;;;-0.70;71.20;-1.20;97070.00;;;;5095214;28;20438;-82
2021/12/22 03:59:24;;;;;;;7.93;7.13;;;-0.70;71.10;-1.20;97079.00;;;;5094858;28;20970;-82
2021/12/22 04:01:52;;;;;;;8.73;6.90;;;-0.80;71.10;-1.20;97061.00;;;;5095253;28;20445;-82
2021/12/22 04:04:20;;;;;;;8.53;6.73;;;-0.80;71.10;-1.20;97074.00;;;;5093772;28;20964;-83
2021/12/22 04:06:48;;;;;;;10.67;7.30;;;-0.80;71.10;-1.20;97071.00;;;;5101950;28;20829;-82
2021/12/22 04:09:16;;;;;;;10.07;6.63;;;-0.80;71.10;-1.30;97074.00;;;;5095768;28;21061;-81
2021/12/22 04:11:44;;;;;;;10.27;7.63;;;-0.80;71.10;-1.30;97077.00;;;;5081381;28;20449;-81
2021/12/22 04:14:13;;;;;;;9.73;7.13;;;-0.80;71.10;-1.30;97078.00;;;;5079144;28;20489;-81
2021/12/22 04:16:40;;;;;;;9.43;7.20;;;-0.80;71.20;-1.30;97079.00;;;;5104624;28;20437;-82
2021/12/22 04:19:09;;;;;;;10.97;8.10;;;-0.80;71.20;-1.30;97090.00;;;;5112149;28;20460;-81
2021/12/22 04:21:36;;;;;;;12.57;8.33;;;-0.80;71.20;-1.30;97078.00;;;;5093285;28;20434;-81
2021/12/22 04:24:05;;;;;;;9.40;7.00;;;-0.80;71.20;-1.30;97087.00;;;;5095067;28;20513;-81
2021/12/22 04:26:32;;;;;;;10.50;7.00;;;-0.80;71.20;-1.30;97094.00;;;;5095172;28;21010;-81
2021/12/22 04:29:00;;;;;;;10.97;7.80;;;-0.80;71.30;-1.30;97096.00;;;;5090095;28;20469;-80
2021/12/22 04:31:27;;;;;;;9.20;6.57;;;-0.80;71.30;-1.30;97100.00;;;;5089438;28;20438;-82
2021/12/22 04:33:55;;;;;;;9.03;7.43;;;-0.80;71.30;-1.30;97094.00;;;;5101109;28;20796;-80
2021/12/22 04:36:23;;;;;;;10.43;7.80;;;-0.80;71.20;-1.30;97098.00;;;;5098164;28;20433;-81
2021/12/22 04:38:50;;;;;;;8.53;7.33;;;-0.80;71.20;-1.30;97086.00;;;;5094008;28;20556;-80
2021/12/22 04:41:17;;;;;;;8.63;7.23;;;-0.80;71.20;-1.30;97087.00;;;;5099658;28;20441;-80
2021/12/22 04:43:44;;;;;;;9.67;7.00;;;-0.80;71.30;-1.30;97084.00;;;;5100407;28;20436;-80
2021/12/22 04:46:11;;;;;;;8.30;6.40;;;-0.80;71.10;-1.30;97083.00;;;;5089701;28;20453;-81
2021/12/22 04:48:38;;;;;;;9.30;7.27;;;-0.80;71.10;-1.30;97087.00;;;;5081783;28;20485;-80
2021/12/22 04:51:13;;;;;;;9.60;6.87;;;-0.80;71.10;-1.30;97083.00;;;;5097958;28;20437;-81
2021/12/22 04:53:51;;;;;;;8.83;6.87;;;-0.80;71.10;-1.30;97096.00;;;;5097999;28;20608;-81
2021/12/22 04:56:18;;;;;;;9.67;7.37;;;-0.70;71.10;-1.30;97088.00;;;;5098191;28;20445;-80
2021/12/22 04:58:45;;;;;;;9.83;7.33;;;-0.90;70.90;-1.40;97080.00;;;;5097938;28;20702;-80
2021/12/22 05:01:12;;;;;;;9.57;7.30;;;-0.90;70.90;-1.40;97097.00;;;;5089009;28;20970;-81
2021/12/22 05:03:41;;;;;;;10.33;6.93;;;-0.90;70.80;-1.40;97081.00;;;;5108105;28;20433;-80
2021/12/22 05:06:08;;;;;;;8.03;6.50;;;-0.90;70.80;-1.40;97082.00;;;;5090573;28;20866;-81
2021/12/22 05:08:35;;;;;;;10.43;6.77;;;-0.90;70.80;-1.50;97083.00;;;;5089378;28;20453;-80
2021/12/22 05:11:04;;;;;;;8.77;6.97;;;-0.90;70.80;-1.50;97083.00;;;;5099837;28;20444;-81
2021/12/22 05:13:33;;;;;;;8.80;6.63;;;-0.90;70.80;-1.50;97077.00;;;;5100502;28;20449;-81
2021/12/22 05:16:03;;;;;;;10.33;7.33;;;-1.00;70.70;-1.50;97075.00;;;;5095251;28;20485;-81
2021/12/22 05:18:51;;;;;;;10.73;7.27;;;-1.00;70.60;-1.50;97075.00;;;;5098409;28;20461;-81
2021/12/22 05:21:20;;;;;;;9.47;7.40;;;-1.00;70.40;-1.50;97084.00;;;;5096454;28;20437;-82
2021/12/22 05:23:48;;;;;;;9.37;7.17;;;-1.00;70.30;-1.50;97081.00;;;;5104294;28;20871;-80
2021/12/22 05:26:17;;;;;;;9.40;6.87;;;-1.00;70.50;-1.50;97088.00;;;;5098764;28;20440;-80
2021/12/22 05:28:44;;;;;;;9.57;6.83;;;-1.00;70.60;-1.60;97081.00;;;;5098069;28;20476;-81
2021/12/22 05:31:11;;;;;;;11.63;7.70;;;-1.10;70.60;-1.60;97086.00;;;;5096173;28;20438;-80
2021/12/22 05:33:38;;;;;;;10.30;6.83;;;-1.00;70.70;-1.60;97079.00;;;;5098899;28;20445;-82
2021/12/22 05:36:06;;;;;;;9.10;7.20;;;-1.10;70.60;-1.60;97078.00;;;;5095804;28;21743;-81
2021/12/22 05:38:33;;;;;;;7.70;6.20;;;-1.10;70.60;-1.60;97083.00;;;;5100607;28;20517;-81
2021/12/22 05:41:00;;;;;;;10.33;7.03;;;-1.10;70.60;-1.60;97083.00;;;;5099697;28;20440;-81
2021/12/22 05:43:29;;;;;;;8.13;6.53;;;-1.10;70.70;-1.70;97084.00;;;;5099935;28;20456;-81
2021/12/22 05:45:58;;;;;;;9.80;7.57;;;-1.10;70.70;-1.70;97091.00;;;;5098637;28;20805;-80
2021/12/22 05:48:25;;;;;;;11.60;7.80;;;-1.20;70.50;-1.70;97090.00;;;;5100435;28;20459;-80
2021/12/22 05:50:56;;;;;;;9.30;7.17;;;-1.20;70.60;-1.70;97092.00;;;;5094953;28;20939;-81
2021/12/22 05:53:24;;;;;;;9.20;7.13;;;-1.20;70.60;-1.70;97098.00;;;;5100009;28;20528;-82
2021/12/22 05:55:51;;;;;;;8.57;6.67;;;-1.20;71.30;-1.70;97079.00;;;;5099141;28;20491;-81
2021/12/22 05:58:18;;;;;;;10.67;7.73;;;-1.20;70.70;-1.70;97083.00;;;;5098244;28;20473;-80
2021/12/22 06:00:47;;;;;;;12.20;7.43;;;-1.20;70.80;-1.70;97093.00;;;;5098039;28;20449;-81
2021/12/22 06:03:14;;;;;;;9.73;7.50;;;-1.20;70.80;-1.70;97084.00;;;;5098463;28;20438;-81
2021/12/22 06:05:43;;;;;;;9.10;7.77;;;-1.20;70.70;-1.70;97090.00;;;;5096955;28;20449;-81
2021/12/22 06:08:10;;;;;;;9.77;7.00;;;-1.20;70.70;-1.70;97086.00;;;;5098239;28;20457;-81
2021/12/22 06:10:37;;;;;;;8.53;7.30;;;-1.20;70.60;-1.70;97080.00;;;;5104917;28;20434;-80
2021/12/22 06:13:05;;;;;;;8.70;7.30;;;-1.20;70.50;-1.80;97079.00;;;;5099011;28;20437;-81
2021/12/22 06:15:33;;;;;;;9.27;7.83;;;-1.20;70.60;-1.80;97092.00;;;;5092463;28;20481;-80
2021/12/22 06:18:03;;;;;;;10.83;7.40;;;-1.30;70.50;-1.80;97081.00;;;;5112374;28;20484;-82
2021/12/22 06:20:32;;;;;;;11.63;8.33;;;-1.30;70.50;-1.80;97084.00;;;;5085764;28;20466;-83
2021/12/22 06:22:59;;;;;;;12.53;8.17;;;-1.30;70.60;-1.80;97088.00;;;;5099418;28;20520;-80
2021/12/22 06:25:27;;;;;;;10.03;7.10;;;-1.30;70.60;-1.80;97085.00;;;;5098032;28;20446;-81
2021/12/22 06:27:54;;;;;;;9.47;7.70;;;-1.30;70.60;-1.80;97087.00;;;;5097475;28;20490;-81
2021/12/22 06:30:23;;;;;;;10.23;7.17;;;-1.30;70.60;-1.80;97085.00;;;;5097882;28;20449;-81
2021/12/22 06:32:51;;;;;;;10.70;7.57;;;-1.30;70.70;-1.80;97099.00;;;;5104018;28;20468;-82
2021/12/22 06:35:20;;;;;;;12.17;7.80;;;-1.30;70.80;-1.80;97091.00;;;;5088160;28;20478;-81
2021/12/22 06:37:48;;;;;;;8.93;6.43;;;-1.30;70.90;-1.80;97079.00;;;;5094857;28;20460;-81
2021/12/22 06:40:16;;;;;;;9.73;7.97;;;-1.30;71.00;-1.80;97088.00;;;;5097512;28;20445;-79
2021/12/22 06:42:44;;;;;;;8.80;7.10;;;-1.40;70.80;-1.80;97089.00;;;;5099212;28;20429;-80
2021/12/22 06:45:14;;;;;;;10.93;7.13;;;-1.40;70.80;-1.80;97096.00;;;;5098907;28;20939;-80
2021/12/22 06:47:43;;;;;;;8.77;7.00;;;-1.40;70.80;-1.90;97095.00;;;;5099097;28;20457;-80
2021/12/22 06:50:11;;;;;;;11.23;7.50;;;-1.40;70.90;-1.80;97087.00;;;;5098378;28;20440;-81
2021/12/22 06:52:40;;;;;;;9.97;7.20;;;-1.40;71.10;-1.80;97092.00;;;;5100033;28;21012;-80
2021/12/22 06:55:08;;;;;;;11.30;7.40;;;-1.30;71.20;-1.70;97093.00;;;;5091252;28;20489;-80
2021/12/22 06:57:35;;;;;;;9.90;7.43;;;-1.30;71.20;-1.70;97096.00;;;;5090991;28;20465;-79
2021/12/22 07:00:04;;;;;;;11.33;7.50;;;-1.30;71.30;-1.70;97104.00;;;;5099728;28;20441;-80
2021/12/22 07:02:35;;;;;;;10.27;6.63;;;-1.30;71.30;-1.60;97099.00;;;;5092487;28;20448;-82
2021/12/22 07:05:03;;;;;;;14.97;7.70;;;-1.30;71.30;-1.60;97091.00;;;;5088492;28;20441;-80
2021/12/22 07:07:30;;;;;;;9.97;7.57;;;-1.30;71.30;-1.60;97089.00;;;;5087633;28;20453;-80
2021/12/22 07:09:58;;;;;;;10.47;7.50;;;-1.30;71.40;-1.50;97101.00;;;;5093836;28;20942;-80
2021/12/22 07:12:26;;;;;;;11.73;7.37;;;-1.20;71.30;-1.50;97087.00;;;;5092011;28;20450;-80
2021/12/22 07:14:53;;;;;;;10.57;7.27;;;-1.20;72.00;-1.50;97102.00;;;;5098460;28;20461;-80
2021/12/22 07:17:20;;;;;;;12.20;7.50;;;-1.20;71.20;-1.50;97105.00;;;;5083306;28;20470;-80
2021/12/22 07:19:47;;;;;;;12.13;7.50;;;-1.20;71.20;-1.40;97108.00;;;;5101174;28;20456;-82
2021/12/22 07:22:14;;;;;;;9.97;7.40;;;-1.20;71.30;-1.40;97111.00;;;;5098353;28;20808;-80
2021/12/22 07:24:41;;;;;;;8.93;6.90;;;-1.20;71.40;-1.30;97110.00;;;;5102008;28;20450;-81
2021/12/22 07:27:10;;;;;;;9.57;7.73;;;-1.10;71.40;-1.30;97103.00;;;;5100105;28;20446;-81
2021/12/22 07:29:37;;;;;;;11.83;7.50;;;-1.10;71.30;-1.30;97105.00;;;;5091756;28;20457;-80
2021/12/22 07:32:05;;;;;;;12.80;8.43;;;-1.10;71.30;-1.20;97097.00;;;;5098215;28;20449;-81
2021/12/22 07:34:42;;;;;;;10.20;8.27;;;-1.00;71.40;-1.20;97106.00;;;;5099583;28;20452;-80
2021/12/22 07:37:19;;;;;;;10.37;8.20;;;-1.00;71.40;-1.20;97103.00;;;;5096925;28;20552;-80
2021/12/22 07:39:46;;;;;;;8.80;7.07;;;-1.00;71.30;-1.20;97109.00;;;;5102617;28;20961;-82
2021/12/22 07:42:15;;;;;;;9.70;7.47;;;-0.90;71.50;-1.10;97102.00;;;;5091084;28;20454;-80
2021/12/22 07:44:42;;;;;;;13.63;7.30;;;-0.90;71.50;-1.10;97102.00;;;;5094522;28;20447;-80
2021/12/22 07:47:09;;;;;;;10.27;7.97;;;-0.90;71.50;-1.10;97099.00;;;;5107884;28;20456;-80
2021/12/22 07:49:36;;;;;;;8.67;7.33;;;-0.80;71.60;-1.10;97096.00;;;;5092555;28;20454;-81
2021/12/22 07:52:05;;;;;;;12.00;7.60;;;-0.80;71.60;-1.10;97084.00;;;;5101668;28;20436;-80
2021/12/22 07:54:32;;;;;;;9.07;7.20;;;-0.80;71.60;-1.00;97084.00;;;;5104453;28;21054;-82
2021/12/22 07:56:59;;;;;;;8.60;7.20;;;-0.80;71.70;-1.00;97088.00;;;;5098013;28;20485;-81
2021/12/22 07:59:28;;;;;;;10.60;7.47;;;-0.70;71.80;-0.90;97100.00;;;;5096106;28;20949;-81
2021/12/22 08:01:56;;;;;;;10.13;7.33;;;-0.70;71.70;-0.90;97104.00;;;;5096924;28;20452;-81
2021/12/22 08:04:23;;;;;;;10.63;8.03;;;-0.70;71.80;-0.90;97104.00;;;;5098506;28;20445;-81
2021/12/22 08:06:51;;;;;;;10.53;7.03;;;-0.60;71.80;-0.80;97113.00;;;;5090972;28;20472;-82
2021/12/22 08:09:18;;;;;;;13.57;8.73;;;-0.60;71.80;-0.80;97109.00;;;;5085457;28;20891;-79
2021/12/22 08:11:45;;;;;;;13.90;8.47;;;-0.60;71.90;-0.70;97109.00;;;;5081200;28;20433;-80
2021/12/22 08:14:12;;;;;;;12.23;8.70;;;-0.50;72.00;-0.70;97121.00;;;;5080570;28;20427;-80
2021/12/22 08:16:40;;;;;;;14.33;8.80;;;-0.50;72.10;-0.60;97121.00;;;;5081405;28;20481;-80
2021/12/22 08:19:07;;;;;;;12.63;8.57;;;-0.50;72.10;-0.60;97117.00;;;;5080317;28;20466;-80
2021/12/22 08:21:34;;;;;;;11.97;8.20;;;-0.40;72.10;-0.60;97122.00;;;;5081912;28;20533;-80
2021/12/22 08:24:05;;;;;;;12.07;8.20;;;-0.40;72.20;-0.50;97125.00;;;;5080454;28;20461;-79
2021/12/22 08:26:33;;;;;;;12.50;8.37;;;-0.40;72.90;-0.50;97122.00;;;;5081001;28;20430;-80
2021/12/22 08:29:00;;;;;;;15.10;8.87;;;-0.30;72.30;-0.40;97123.00;;;;5083559;28;20478;-79
2021/12/22 08:31:28;;;;;;;13.03;9.20;;;-0.30;72.40;-0.30;97129.00;;;;5080711;28;20449;-80
2021/12/22 08:33:56;;;;;;;14.27;9.10;;;-0.20;72.40;-0.30;97133.00;;;;5082317;28;20452;-80
2021/12/22 08:39:08;;;;;;;14.07;9.30;;;-0.10;72.60;-0.20;97142.00;;;;5075752;28;20441;-80
2021/12/22 08:41:40;;;;;;;14.30;9.03;;;-0.10;72.70;-0.10;97146.00;;;;5096535;28;20441;-82
2021/12/22 08:44:12;;;;;;;12.30;8.57;;;0.00;72.90;0.00;97146.00;;;;5093680;28;20501;-79
2021/12/22 08:46:43;;;;;;;9.63;8.10;;;0.10;73.10;0.00;97143.00;;;;5097022;28;20502;-81
2021/12/22 08:49:12;;;;;;;9.83;7.40;;;0.10;73.20;0.10;97145.00;;;;5103562;28;20457;-82
2021/12/22 08:51:39;;;;;;;9.90;8.10;;;0.20;73.40;0.20;97153.00;;;;5102805;28;20434;-80
2021/12/22 08:54:06;;;;;;;11.30;7.87;;;0.20;74.30;0.20;97146.00;;;;5102685;28;20450;-83
2021/12/22 08:56:36;;;;;;;9.73;7.87;;;0.30;73.70;0.30;97149.00;;;;5098129;28;20488;-81
2021/12/22 08:59:05;;;;;;;8.77;7.53;;;0.40;73.90;0.40;97158.00;;;;5095119;28;20468;-81
2021/12/22 09:01:32;;;;;;;10.50;7.90;;;0.50;74.10;0.50;97157.00;;;;5093658;28;20528;-80
2021/12/22 09:04:00;;;;;;;10.73;8.33;;;0.50;74.10;0.50;97159.00;;;;5092645;28;20430;-80
2021/12/22 09:06:29;;;;;;;9.87;7.97;;;0.60;74.20;0.60;97163.00;;;;5095582;28;20448;-81
2021/12/22 09:08:58;;;;;;;8.93;7.80;;;0.70;74.40;0.70;97166.00;;;;5091973;28;20457;-79
2021/12/22 09:11:26;;;;;;;9.47;8.13;;;0.70;74.40;0.70;97163.00;;;;5092816;28;20453;-80
2021/12/22 09:13:53;;;;;;;10.57;8.27;;;0.80;74.50;0.80;97158.00;;;;5093698;28;20512;-80
2021/12/22 09:16:21;;;;;;;9.43;7.67;;;0.90;74.50;0.90;97166.00;;;;5103544;22;20486;-85
2021/12/22 09:18:48;;;;;;;12.03;8.57;;;0.90;74.50;0.90;97174.00;;;;5086694;28;20530;-85
2021/12/22 09:21:16;;;;;;;10.20;8.33;;;1.00;74.60;1.00;97181.00;;;;5100383;28;20514;-84
2021/12/22 09:23:45;;;;;;;11.73;8.97;;;1.10;74.60;1.10;97184.00;;;;5100083;28;20425;-84
2021/12/22 09:26:12;;;;;;;11.30;9.10;;;1.10;74.70;1.20;97180.00;;;;5094776;28;20544;-84
2021/12/22 09:28:42;;;;;;;9.90;8.27;;;1.20;74.90;1.20;97187.00;;;;5098550;28;20504;-84
2021/12/22 09:31:10;;;;;;;10.50;8.53;;;1.30;75.00;1.30;97189.00;;;;5095608;28;20453;-85
2021/12/22 09:33:38;;;;;;;11.33;9.30;;;1.40;75.10;1.40;97183.00;;;;5092539;28;20990;-84
2021/12/22 09:36:08;;;;;;;11.33;9.37;;;1.50;75.10;1.50;97181.00;;;;5087897;28;20516;-83
2021/12/22 09:38:38;;;;;;;12.30;9.00;;;1.50;75.00;1.60;97170.00;;;;5088995;28;20492;-84
2021/12/22 09:41:08;;;;;;;10.73;8.67;;;1.60;75.10;1.70;97173.00;;;;5086099;28;20441;-84
2021/12/22 09:43:36;;;;;;;12.63;9.23;;;1.70;75.20;1.80;97170.00;;;;5084203;28;20450;-85
2021/12/22 09:46:09;;;;;;;12.73;9.20;;;1.80;75.30;2.00;97178.00;;;;5085256;28;20502;-87
2021/12/22 09:48:49;;;;;;;13.33;10.00;;;2.00;75.60;2.10;97184.00;;;;5093927;28;20461;-85
2021/12/22 09:54:07;;;;;;;13.57;10.23;;;2.20;76.10;2.40;97178.00;;;;5095859;28;20437;-85
2021/12/22 09:56:41;;;;;;;12.00;9.77;;;2.50;76.50;2.60;97173.00;;;;5095709;28;20473;-85
2021/12/22 09:59:11;;;;;;;13.10;9.63;;;2.70;77.40;2.80;97176.00;;;;5095479;28;20453;-85
2021/12/22 10:01:39;;;;;;;14.87;9.93;;;2.90;77.00;3.00;97178.00;;;;5095640;28;20429;-84
2021/12/22 10:04:06;;;;;;;13.20;9.03;;;3.20;77.10;3.20;97170.00;;;;5095722;28;20540;-86
2021/12/22 10:06:33;;;;;;;11.67;9.20;;;3.40;77.00;3.40;97172.00;;;;5095663;28;20437;-85
2021/12/22 10:09:06;;;;;;;12.53;9.10;;;3.70;77.00;3.50;97169.00;;;;5094917;28;20477;-85
2021/12/22 10:11:43;;;;;;;12.00;9.03;;;3.90;77.10;3.80;97173.00;;;;5095731;28;20593;-85
2021/12/22 10:14:21;;;;;;;10.33;8.73;;;4.10;76.20;3.90;97166.00;;;;5094991;28;20195;-85
2021/12/22 10:16:55;;;;;;;11.03;8.70;;;4.50;75.70;4.10;97163.00;;;;5094800;28;20858;-85
2021/12/22 10:19:26;;;;;;;11.53;8.67;;;4.60;75.50;4.30;97161.00;;;;5093928;28;20686;-85
2021/12/22 10:21:59;;;;;;;11.30;9.23;;;4.80;75.40;4.50;97159.00;;;;5093866;28;20282;-85
2021/12/22 10:24:40;;;;;;;14.00;10.27;;;5.00;75.10;4.70;97159.00;;;;5092931;28;20212;-84
2021/12/22 10:27:13;;;;;;;10.87;9.00;;;5.10;74.30;4.80;97154.00;;;;5094304;28;20724;-86
2021/12/22 10:29:43;;;;;;;12.30;9.27;;;5.30;74.40;4.90;97154.00;;;;5095247;28;20344;-85
2021/12/22 10:32:14;;;;;;;12.07;9.40;;;5.40;74.10;5.00;97151.00;;;;5094217;28;20454;-86
2021/12/22 10:34:58;;;;;;;12.87;10.17;;;5.50;73.10;5.10;97150.00;;;;5092841;28;20206;-86
2021/12/22 10:37:36;;;;;;;11.57;9.70;;;5.50;72.10;5.10;97145.00;;;;5095103;28;20208;-86
2021/12/22 10:40:23;;;;;;;12.73;9.60;;;5.60;71.80;5.20;97141.00;;;;5094462;28;20254;-84
2021/12/22 10:43:00;;;;;;;12.33;9.07;;;5.60;71.30;5.20;97140.00;;;;5093257;28;20397;-85
2021/12/22 10:45:34;;;;;;;10.40;9.17;;;5.50;71.50;5.20;97136.00;;;;5093814;28;20210;-84
2021/12/22 10:50:59;;;;;;;11.03;8.97;;;5.50;71.60;5.20;97136.00;;;;5095350;28;20197;-87
2021/12/22 10:53:27;;;;;;;10.57;8.73;;;5.40;71.60;5.20;97126.00;;;;5095484;28;20206;-87
2021/12/22 10:55:58;;;;;;;11.40;8.73;;;5.40;71.70;5.20;97130.00;;;;5095179;28;20231;-87
2021/12/22 10:58:29;;;;;;;11.07;8.93;;;5.40;71.50;5.20;97118.00;;;;5094299;28;20218;-87
2021/12/22 11:01:13;;;;;;;11.37;9.40;;;5.40;71.60;5.20;97125.00;;;;5095188;28;20700;-88
2021/12/22 11:03:47;;;;;;;11.57;9.40;;;5.40;71.50;5.20;97117.00;;;;5094412;28;20215;-87
2021/12/22 11:06:22;;;;;;;10.87;8.80;;;5.30;71.40;5.10;97113.00;;;;5094475;28;20209;-86
2021/12/22 11:09:00;;;;;;;12.33;9.70;;;5.30;71.50;5.10;97116.00;;;;5094362;28;20215;-87
2021/12/22 11:11:36;;;;;;;12.60;9.77;;;5.30;71.30;5.10;97113.00;;;;5093918;28;20188;-88
2021/12/22 11:14:16;;;;;;;12.67;10.17;;;5.20;71.20;5.10;97109.00;;;;5093134;28;20206;-87
2021/12/22 11:17:02;;;;;;;12.10;9.60;;;5.20;71.20;5.10;97106.00;;;;5093799;28;20246;-87